map of GDT home
GDT - Airport
Location
City:  Grand Turk, Grand Turk Island, Turks and Caicos Islands
Name:J.A.G.S. McCartney International Airport
Old (Alt.):Grand Turk International Airport
ICAO:MBGT
IATA:GDT

Details
Type:Airport (Aerodrome, Airfield)
Use:Public/Civil, International (customs port of entry)
Latitude:2126'40"N (21.444544)
Longitude:7108'32"W (-71.142343)
Datum:WGS 1984
Elevation:11 ft (3 m)
Variation:11.17W (WMM2015v2 magnetic declination)
-0.05 annual change
Runways:1
Longest:6368 × 148 ft (1941 × 45 m), paved

Time
Time Zone:UTC-5 (DST-4)
Local Time:

Weather
METAR:MBGT 041100Z 14012KT 9999 SCT020 SCT050 25/22 Q2994
TAF:MBGT 041100Z 0412/0512 VRB02KT 9999 SCT018 SCT050
BECMG 0418/0420 16008KT
BECMG 0502/0504 VRB02KT

Related Locations
Nearby:
Farthest:EXM: 12108 mi / 19486 km
Exmouth Gulf, WA, AU

Find:

   beyond  
but within

Other Information
Maps:
NOTAMs:
Links:
Sources:

  
  • flag of Turks and Caicos Islands
  

Sectional Chart

Flight Planning
at skyvector.com

Satellite Image

Google Maps Satellite view

 

Copyright © 2004-2019 Karl L. Swartz. All rights reserved.
The Great Circle Mapper name and logo are trademarks of the Great Circle Mapper.
All other trademarks mentioned herein belong to their respective owners.
Please see credits for attibutions and further copyright information.

  Follow gcmap on Facebook Follow gcmap on Twitter GCmap on LinkedIn

hCard Microformat

Geo Microformat